sensor_id;sensor_type;location;lat;lon;timestamp;P1;durP1;ratioP1;P2;durP2;ratioP2
70592;SDS011;58294;42.988;20.338;2023-08-06T00:00:09;14.52;;;10.57;;
70592;SDS011;58294;42.988;20.338;2023-08-06T00:02:35;18.00;;;10.10;;
70592;SDS011;58294;42.988;20.338;2023-08-06T00:05:01;14.25;;;8.93;;
70592;SDS011;58294;42.988;20.338;2023-08-06T00:07:26;13.25;;;9.60;;
70592;SDS011;58294;42.988;20.338;2023-08-06T00:09:52;13.32;;;10.20;;
70592;SDS011;58294;42.988;20.338;2023-08-06T00:12:18;15.90;;;10.48;;
70592;SDS011;58294;42.988;20.338;2023-08-06T00:14:44;16.30;;;10.63;;
70592;SDS011;58294;42.988;20.338;2023-08-06T00:17:10;16.95;;;11.48;;
70592;SDS011;58294;42.988;20.338;2023-08-06T00:19:35;18.55;;;12.02;;
70592;SDS011;58294;42.988;20.338;2023-08-06T00:22:01;14.23;;;11.13;;
70592;SDS011;58294;42.988;20.338;2023-08-06T00:24:27;16.50;;;11.55;;
70592;SDS011;58294;42.988;20.338;2023-08-06T00:26:53;14.45;;;9.95;;
70592;SDS011;58294;42.988;20.338;2023-08-06T00:29:19;13.68;;;9.75;;
70592;SDS011;58294;42.988;20.338;2023-08-06T00:31:45;16.90;;;11.05;;
70592;SDS011;58294;42.988;20.338;2023-08-06T00:34:10;15.85;;;10.85;;
70592;SDS011;58294;42.988;20.338;2023-08-06T00:36:36;12.57;;;10.35;;
70592;SDS011;58294;42.988;20.338;2023-08-06T00:39:02;17.83;;;11.18;;
70592;SDS011;58294;42.988;20.338;2023-08-06T00:41:28;14.15;;;10.85;;
70592;SDS011;58294;42.988;20.338;2023-08-06T00:43:54;14.40;;;11.18;;
70592;SDS011;58294;42.988;20.338;2023-08-06T00:46:20;15.10;;;11.27;;
70592;SDS011;58294;42.988;20.338;2023-08-06T00:48:46;19.20;;;12.35;;
70592;SDS011;58294;42.988;20.338;2023-08-06T00:51:12;15.95;;;10.98;;
70592;SDS011;58294;42.988;20.338;2023-08-06T00:53:39;16.90;;;12.05;;
70592;SDS011;58294;42.988;20.338;2023-08-06T00:56:05;16.02;;;11.38;;
70592;SDS011;58294;42.988;20.338;2023-08-06T00:58:32;15.45;;;12.25;;
70592;SDS011;58294;42.988;20.338;2023-08-06T01:00:59;17.75;;;11.65;;
70592;SDS011;58294;42.988;20.338;2023-08-06T01:03:25;15.70;;;10.85;;
70592;SDS011;58294;42.988;20.338;2023-08-06T01:05:51;19.08;;;10.90;;
70592;SDS011;58294;42.988;20.338;2023-08-06T01:11:38;14.40;;;11.98;;
70592;SDS011;58294;42.988;20.338;2023-08-06T01:14:16;13.50;;;10.80;;
70592;SDS011;58294;42.988;20.338;2023-08-06T01:16:50;16.05;;;11.95;;
70592;SDS011;58294;42.988;20.338;2023-08-06T01:19:17;17.00;;;11.70;;
70592;SDS011;58294;42.988;20.338;2023-08-06T01:21:43;15.30;;;11.77;;
70592;SDS011;58294;42.988;20.338;2023-08-06T01:24:09;15.00;;;11.00;;
70592;SDS011;58294;42.988;20.338;2023-08-06T01:31:50;14.98;;;11.02;;
70592;SDS011;58294;42.988;20.338;2023-08-06T01:34:21;16.70;;;11.52;;
70592;SDS011;58294;42.988;20.338;2023-08-06T01:36:49;12.77;;;10.32;;
70592;SDS011;58294;42.988;20.338;2023-08-06T01:39:16;17.13;;;10.50;;
70592;SDS011;58294;42.988;20.338;2023-08-06T01:41:42;13.75;;;10.43;;
70592;SDS011;58294;42.988;20.338;2023-08-06T01:44:07;17.98;;;10.75;;
70592;SDS011;58294;42.988;20.338;2023-08-06T01:46:33;14.00;;;11.45;;
70592;SDS011;58294;42.988;20.338;2023-08-06T01:48:59;15.45;;;11.30;;
70592;SDS011;58294;42.988;20.338;2023-08-06T01:51:25;13.65;;;9.93;;
70592;SDS011;58294;42.988;20.338;2023-08-06T01:53:51;16.08;;;11.73;;
70592;SDS011;58294;42.988;20.338;2023-08-06T01:56:16;15.18;;;10.23;;
70592;SDS011;58294;42.988;20.338;2023-08-06T01:58:42;12.13;;;9.55;;
70592;SDS011;58294;42.988;20.338;2023-08-06T02:01:08;15.60;;;10.48;;
70592;SDS011;58294;42.988;20.338;2023-08-06T02:03:34;12.60;;;9.48;;
70592;SDS011;58294;42.988;20.338;2023-08-06T02:05:59;17.85;;;10.45;;
70592;SDS011;58294;42.988;20.338;2023-08-06T02:08:26;11.40;;;9.35;;
70592;SDS011;58294;42.988;20.338;2023-08-06T02:10:52;14.57;;;10.52;;
70592;SDS011;58294;42.988;20.338;2023-08-06T02:13:18;12.70;;;10.52;;
70592;SDS011;58294;42.988;20.338;2023-08-06T02:15:45;16.08;;;10.93;;
70592;SDS011;58294;42.988;20.338;2023-08-06T02:18:13;15.50;;;9.55;;
70592;SDS011;58294;42.988;20.338;2023-08-06T02:20:40;15.95;;;9.60;;
70592;SDS011;58294;42.988;20.338;2023-08-06T02:23:06;15.77;;;10.32;;
70592;SDS011;58294;42.988;20.338;2023-08-06T02:25:32;16.33;;;10.27;;
70592;SDS011;58294;42.988;20.338;2023-08-06T02:27:57;12.98;;;9.98;;
70592;SDS011;58294;42.988;20.338;2023-08-06T02:30:23;14.77;;;9.75;;
70592;SDS011;58294;42.988;20.338;2023-08-06T02:32:49;14.15;;;9.52;;
70592;SDS011;58294;42.988;20.338;2023-08-06T02:35:15;15.68;;;10.00;;
70592;SDS011;58294;42.988;20.338;2023-08-06T02:37:41;15.13;;;10.85;;
70592;SDS011;58294;42.988;20.338;2023-08-06T02:40:07;13.35;;;10.07;;
70592;SDS011;58294;42.988;20.338;2023-08-06T02:42:33;18.90;;;11.25;;
70592;SDS011;58294;42.988;20.338;2023-08-06T02:44:59;15.20;;;10.38;;
70592;SDS011;58294;42.988;20.338;2023-08-06T02:47:24;12.68;;;9.48;;
70592;SDS011;58294;42.988;20.338;2023-08-06T02:49:50;16.10;;;11.32;;
70592;SDS011;58294;42.988;20.338;2023-08-06T02:52:16;15.05;;;10.60;;
70592;SDS011;58294;42.988;20.338;2023-08-06T02:54:42;17.42;;;11.90;;
70592;SDS011;58294;42.988;20.338;2023-08-06T02:57:08;16.58;;;11.68;;
70592;SDS011;58294;42.988;20.338;2023-08-06T02:59:34;15.00;;;10.70;;
70592;SDS011;58294;42.988;20.338;2023-08-06T03:02:00;16.33;;;9.98;;
70592;SDS011;58294;42.988;20.338;2023-08-06T03:04:25;18.45;;;10.50;;
70592;SDS011;58294;42.988;20.338;2023-08-06T03:06:51;15.93;;;9.75;;
70592;SDS011;58294;42.988;20.338;2023-08-06T03:09:18;12.85;;;9.18;;
70592;SDS011;58294;42.988;20.338;2023-08-06T03:11:44;13.25;;;10.18;;
70592;SDS011;58294;42.988;20.338;2023-08-06T03:14:09;12.07;;;9.15;;
70592;SDS011;58294;42.988;20.338;2023-08-06T03:16:35;17.13;;;10.07;;
70592;SDS011;58294;42.988;20.338;2023-08-06T03:19:01;12.45;;;8.88;;
70592;SDS011;58294;42.988;20.338;2023-08-06T03:21:27;11.55;;;8.65;;
70592;SDS011;58294;42.988;20.338;2023-08-06T03:23:53;12.40;;;8.48;;
70592;SDS011;58294;42.988;20.338;2023-08-06T03:26:18;14.38;;;8.48;;
70592;SDS011;58294;42.988;20.338;2023-08-06T03:28:44;11.18;;;9.30;;
70592;SDS011;58294;42.988;20.338;2023-08-06T03:31:10;21.38;;;12.07;;
70592;SDS011;58294;42.988;20.338;2023-08-06T03:33:36;17.70;;;12.25;;
70592;SDS011;58294;42.988;20.338;2023-08-06T03:36:02;18.67;;;11.45;;
70592;SDS011;58294;42.988;20.338;2023-08-06T03:38:28;14.93;;;11.57;;
70592;SDS011;58294;42.988;20.338;2023-08-06T03:40:54;18.98;;;10.73;;
70592;SDS011;58294;42.988;20.338;2023-08-06T03:43:20;17.50;;;10.93;;
70592;SDS011;58294;42.988;20.338;2023-08-06T03:45:45;16.65;;;9.90;;
70592;SDS011;58294;42.988;20.338;2023-08-06T03:48:11;15.18;;;10.00;;
70592;SDS011;58294;42.988;20.338;2023-08-06T03:50:37;11.93;;;9.55;;
70592;SDS011;58294;42.988;20.338;2023-08-06T03:53:03;13.75;;;7.63;;
70592;SDS011;58294;42.988;20.338;2023-08-06T03:55:29;14.38;;;9.27;;
70592;SDS011;58294;42.988;20.338;2023-08-06T03:57:55;10.45;;;8.40;;
70592;SDS011;58294;42.988;20.338;2023-08-06T04:00:21;14.85;;;9.82;;
70592;SDS011;58294;42.988;20.338;2023-08-06T04:02:47;11.40;;;8.63;;
70592;SDS011;58294;42.988;20.338;2023-08-06T04:05:13;15.07;;;8.52;;
70592;SDS011;58294;42.988;20.338;2023-08-06T04:07:38;11.15;;;6.80;;
70592;SDS011;58294;42.988;20.338;2023-08-06T04:10:04;10.35;;;7.57;;
70592;SDS011;58294;42.988;20.338;2023-08-06T04:12:31;13.73;;;7.80;;
70592;SDS011;58294;42.988;20.338;2023-08-06T04:15:01;13.18;;;7.97;;
70592;SDS011;58294;42.988;20.338;2023-08-06T04:17:27;12.13;;;8.30;;
70592;SDS011;58294;42.988;20.338;2023-08-06T04:19:53;11.15;;;7.80;;
70592;SDS011;58294;42.988;20.338;2023-08-06T04:22:23;11.50;;;7.25;;
70592;SDS011;58294;42.988;20.338;2023-08-06T04:24:49;8.90;;;7.00;;
70592;SDS011;58294;42.988;20.338;2023-08-06T04:27:15;10.40;;;7.45;;
70592;SDS011;58294;42.988;20.338;2023-08-06T04:29:41;9.13;;;6.68;;
70592;SDS011;58294;42.988;20.338;2023-08-06T04:32:08;11.57;;;6.90;;
70592;SDS011;58294;42.988;20.338;2023-08-06T04:34:35;8.90;;;6.60;;
70592;SDS011;58294;42.988;20.338;2023-08-06T04:37:02;10.63;;;6.93;;
70592;SDS011;58294;42.988;20.338;2023-08-06T04:39:28;8.57;;;6.53;;
70592;SDS011;58294;42.988;20.338;2023-08-06T04:41:55;8.65;;;7.03;;
70592;SDS011;58294;42.988;20.338;2023-08-06T04:44:24;10.95;;;7.82;;
70592;SDS011;58294;42.988;20.338;2023-08-06T04:46:50;17.58;;;8.50;;
70592;SDS011;58294;42.988;20.338;2023-08-06T04:49:17;10.73;;;7.70;;
70592;SDS011;58294;42.988;20.338;2023-08-06T04:51:43;13.77;;;8.07;;
70592;SDS011;58294;42.988;20.338;2023-08-06T04:54:09;9.57;;;7.80;;
70592;SDS011;58294;42.988;20.338;2023-08-06T04:56:35;12.13;;;8.43;;
70592;SDS011;58294;42.988;20.338;2023-08-06T04:59:01;12.95;;;8.50;;
70592;SDS011;58294;42.988;20.338;2023-08-06T05:01:26;12.80;;;8.18;;
70592;SDS011;58294;42.988;20.338;2023-08-06T05:03:53;11.10;;;8.45;;
70592;SDS011;58294;42.988;20.338;2023-08-06T05:06:19;12.32;;;8.30;;
70592;SDS011;58294;42.988;20.338;2023-08-06T05:08:45;11.60;;;7.95;;
70592;SDS011;58294;42.988;20.338;2023-08-06T05:11:10;10.52;;;7.85;;
70592;SDS011;58294;42.988;20.338;2023-08-06T05:13:36;8.30;;;6.65;;
70592;SDS011;58294;42.988;20.338;2023-08-06T05:16:02;11.40;;;7.63;;
70592;SDS011;58294;42.988;20.338;2023-08-06T05:18:28;12.43;;;8.55;;
70592;SDS011;58294;42.988;20.338;2023-08-06T05:20:55;9.80;;;7.38;;
70592;SDS011;58294;42.988;20.338;2023-08-06T05:23:21;9.82;;;7.20;;
70592;SDS011;58294;42.988;20.338;2023-08-06T05:25:47;8.50;;;6.82;;
70592;SDS011;58294;42.988;20.338;2023-08-06T05:28:13;11.48;;;7.20;;
70592;SDS011;58294;42.988;20.338;2023-08-06T05:30:39;9.15;;;7.55;;
70592;SDS011;58294;42.988;20.338;2023-08-06T05:33:05;9.00;;;7.07;;
70592;SDS011;58294;42.988;20.338;2023-08-06T05:35:31;9.48;;;6.93;;
70592;SDS011;58294;42.988;20.338;2023-08-06T05:37:57;11.73;;;7.38;;
70592;SDS011;58294;42.988;20.338;2023-08-06T05:40:23;8.25;;;6.97;;
70592;SDS011;58294;42.988;20.338;2023-08-06T05:42:50;8.35;;;6.78;;
70592;SDS011;58294;42.988;20.338;2023-08-06T05:45:19;10.98;;;6.55;;
70592;SDS011;58294;42.988;20.338;2023-08-06T05:47:45;12.85;;;7.93;;
70592;SDS011;58294;42.988;20.338;2023-08-06T05:50:13;8.38;;;6.75;;
70592;SDS011;58294;42.988;20.338;2023-08-06T05:52:38;10.52;;;6.60;;
70592;SDS011;58294;42.988;20.338;2023-08-06T05:55:04;7.43;;;6.72;;
70592;SDS011;58294;42.988;20.338;2023-08-06T05:57:30;9.43;;;7.00;;
70592;SDS011;58294;42.988;20.338;2023-08-06T05:59:56;11.15;;;7.28;;
70592;SDS011;58294;42.988;20.338;2023-08-06T06:02:22;9.57;;;7.70;;
70592;SDS011;58294;42.988;20.338;2023-08-06T06:04:48;13.18;;;8.23;;
70592;SDS011;58294;42.988;20.338;2023-08-06T06:07:13;12.68;;;7.53;;
70592;SDS011;58294;42.988;20.338;2023-08-06T06:09:39;9.38;;;7.22;;
70592;SDS011;58294;42.988;20.338;2023-08-06T06:12:05;9.45;;;7.68;;
70592;SDS011;58294;42.988;20.338;2023-08-06T06:14:31;12.75;;;8.98;;
70592;SDS011;58294;42.988;20.338;2023-08-06T06:16:58;11.15;;;7.70;;
70592;SDS011;58294;42.988;20.338;2023-08-06T06:19:25;11.77;;;8.02;;
70592;SDS011;58294;42.988;20.338;2023-08-06T06:21:51;10.30;;;8.95;;
70592;SDS011;58294;42.988;20.338;2023-08-06T06:24:18;9.00;;;7.88;;
70592;SDS011;58294;42.988;20.338;2023-08-06T06:26:43;9.82;;;7.25;;
70592;SDS011;58294;42.988;20.338;2023-08-06T06:29:09;11.25;;;7.50;;
70592;SDS011;58294;42.988;20.338;2023-08-06T06:31:35;9.88;;;8.10;;
70592;SDS011;58294;42.988;20.338;2023-08-06T06:34:02;10.55;;;7.68;;
70592;SDS011;58294;42.988;20.338;2023-08-06T06:36:28;9.13;;;6.57;;
70592;SDS011;58294;42.988;20.338;2023-08-06T06:38:54;10.02;;;7.18;;
70592;SDS011;58294;42.988;20.338;2023-08-06T06:41:19;7.07;;;6.35;;
70592;SDS011;58294;42.988;20.338;2023-08-06T06:43:45;9.93;;;6.45;;
70592;SDS011;58294;42.988;20.338;2023-08-06T06:46:11;7.90;;;5.63;;
70592;SDS011;58294;42.988;20.338;2023-08-06T06:48:37;7.05;;;6.32;;
70592;SDS011;58294;42.988;20.338;2023-08-06T06:51:02;7.45;;;5.57;;
70592;SDS011;58294;42.988;20.338;2023-08-06T06:53:28;20.83;;;7.68;;
70592;SDS011;58294;42.988;20.338;2023-08-06T06:55:56;9.80;;;6.70;;
70592;SDS011;58294;42.988;20.338;2023-08-06T06:58:27;7.85;;;6.40;;
70592;SDS011;58294;42.988;20.338;2023-08-06T07:00:54;7.40;;;5.45;;
70592;SDS011;58294;42.988;20.338;2023-08-06T07:03:19;8.05;;;5.97;;
70592;SDS011;58294;42.988;20.338;2023-08-06T07:05:45;7.13;;;5.22;;
70592;SDS011;58294;42.988;20.338;2023-08-06T07:08:11;6.53;;;5.40;;
70592;SDS011;58294;42.988;20.338;2023-08-06T07:10:38;8.52;;;6.28;;
70592;SDS011;58294;42.988;20.338;2023-08-06T07:13:05;9.73;;;6.03;;
70592;SDS011;58294;42.988;20.338;2023-08-06T07:15:31;6.53;;;5.25;;
70592;SDS011;58294;42.988;20.338;2023-08-06T07:17:57;7.60;;;5.57;;
70592;SDS011;58294;42.988;20.338;2023-08-06T07:20:23;10.05;;;5.65;;
70592;SDS011;58294;42.988;20.338;2023-08-06T07:22:48;7.60;;;5.63;;
70592;SDS011;58294;42.988;20.338;2023-08-06T07:25:15;7.18;;;5.25;;
70592;SDS011;58294;42.988;20.338;2023-08-06T07:27:41;7.35;;;6.55;;
70592;SDS011;58294;42.988;20.338;2023-08-06T07:30:07;7.93;;;6.72;;
70592;SDS011;58294;42.988;20.338;2023-08-06T07:32:33;13.05;;;11.45;;
70592;SDS011;58294;42.988;20.338;2023-08-06T07:34:59;11.50;;;8.07;;
70592;SDS011;58294;42.988;20.338;2023-08-06T07:37:28;6.95;;;6.00;;
70592;SDS011;58294;42.988;20.338;2023-08-06T07:39:55;8.88;;;6.65;;
70592;SDS011;58294;42.988;20.338;2023-08-06T07:42:21;7.03;;;6.32;;
70592;SDS011;58294;42.988;20.338;2023-08-06T07:44:54;8.13;;;4.85;;
70592;SDS011;58294;42.988;20.338;2023-08-06T07:47:22;6.55;;;5.00;;
70592;SDS011;58294;42.988;20.338;2023-08-06T07:49:48;6.90;;;4.38;;
70592;SDS011;58294;42.988;20.338;2023-08-06T07:52:13;9.80;;;7.18;;
70592;SDS011;58294;42.988;20.338;2023-08-06T07:54:39;4.15;;;3.50;;
70592;SDS011;58294;42.988;20.338;2023-08-06T07:57:06;5.43;;;3.83;;
70592;SDS011;58294;42.988;20.338;2023-08-06T07:59:32;4.85;;;3.28;;
70592;SDS011;58294;42.988;20.338;2023-08-06T08:01:58;4.07;;;3.60;;
70592;SDS011;58294;42.988;20.338;2023-08-06T08:04:24;6.57;;;3.90;;
70592;SDS011;58294;42.988;20.338;2023-08-06T08:06:50;7.38;;;4.30;;
70592;SDS011;58294;42.988;20.338;2023-08-06T08:09:15;3.92;;;2.85;;
70592;SDS011;58294;42.988;20.338;2023-08-06T08:11:41;3.63;;;2.92;;
70592;SDS011;58294;42.988;20.338;2023-08-06T08:14:07;3.78;;;3.03;;
70592;SDS011;58294;42.988;20.338;2023-08-06T08:16:33;4.38;;;3.20;;
70592;SDS011;58294;42.988;20.338;2023-08-06T08:18:59;9.25;;;4.03;;
70592;SDS011;58294;42.988;20.338;2023-08-06T08:21:25;3.78;;;3.00;;
70592;SDS011;58294;42.988;20.338;2023-08-06T08:23:51;7.55;;;3.90;;
70592;SDS011;58294;42.988;20.338;2023-08-06T08:26:17;3.30;;;2.95;;
70592;SDS011;58294;42.988;20.338;2023-08-06T08:28:43;3.17;;;2.88;;
70592;SDS011;58294;42.988;20.338;2023-08-06T08:31:09;4.25;;;2.88;;
70592;SDS011;58294;42.988;20.338;2023-08-06T08:33:36;5.45;;;3.80;;
70592;SDS011;58294;42.988;20.338;2023-08-06T08:36:05;4.30;;;3.15;;
70592;SDS011;58294;42.988;20.338;2023-08-06T08:38:31;1.40;;;1.30;;
70592;SDS011;58294;42.988;20.338;2023-08-06T08:40:57;1.10;;;1.00;;
70592;SDS011;58294;42.988;20.338;2023-08-06T08:43:23;1.17;;;1.08;;
70592;SDS011;58294;42.988;20.338;2023-08-06T08:45:51;1.38;;;1.27;;
70592;SDS011;58294;42.988;20.338;2023-08-06T08:48:20;1.55;;;1.20;;
70592;SDS011;58294;42.988;20.338;2023-08-06T08:50:48;1.40;;;1.30;;
70592;SDS011;58294;42.988;20.338;2023-08-06T08:53:15;1.48;;;0.93;;
70592;SDS011;58294;42.988;20.338;2023-08-06T08:55:42;1.80;;;1.00;;
70592;SDS011;58294;42.988;20.338;2023-08-06T08:58:10;0.98;;;0.93;;
70592;SDS011;58294;42.988;20.338;2023-08-06T09:00:36;2.83;;;1.20;;
70592;SDS011;58294;42.988;20.338;2023-08-06T09:03:02;1.15;;;1.05;;
70592;SDS011;58294;42.988;20.338;2023-08-06T09:05:31;1.45;;;0.93;;
70592;SDS011;58294;42.988;20.338;2023-08-06T09:08:04;1.98;;;1.83;;
70592;SDS011;58294;42.988;20.338;2023-08-06T09:10:30;2.15;;;1.35;;
70592;SDS011;58294;42.988;20.338;2023-08-06T09:12:56;3.85;;;1.60;;
70592;SDS011;58294;42.988;20.338;2023-08-06T09:15:26;2.00;;;1.80;;
70592;SDS011;58294;42.988;20.338;2023-08-06T09:17:55;2.92;;;1.48;;
70592;SDS011;58294;42.988;20.338;2023-08-06T09:20:21;1.40;;;1.30;;
70592;SDS011;58294;42.988;20.338;2023-08-06T09:22:47;1.95;;;1.30;;
70592;SDS011;58294;42.988;20.338;2023-08-06T09:25:23;1.23;;;1.10;;
70592;SDS011;58294;42.988;20.338;2023-08-06T09:27:50;1.35;;;0.95;;
70592;SDS011;58294;42.988;20.338;2023-08-06T09:30:50;1.67;;;1.00;;
70592;SDS011;58294;42.988;20.338;2023-08-06T09:33:14;1.02;;;0.88;;
70592;SDS011;58294;42.988;20.338;2023-08-06T09:35:45;0.80;;;0.80;;
70592;SDS011;58294;42.988;20.338;2023-08-06T09:38:11;2.50;;;1.42;;
70592;SDS011;58294;42.988;20.338;2023-08-06T09:40:38;1.88;;;1.15;;
70592;SDS011;58294;42.988;20.338;2023-08-06T09:43:04;1.42;;;0.98;;
70592;SDS011;58294;42.988;20.338;2023-08-06T09:45:39;2.33;;;1.35;;
70592;SDS011;58294;42.988;20.338;2023-08-06T09:48:06;2.65;;;1.38;;
70592;SDS011;58294;42.988;20.338;2023-08-06T09:50:34;1.17;;;1.13;;
70592;SDS011;58294;42.988;20.338;2023-08-06T09:53:02;1.13;;;1.05;;
70592;SDS011;58294;42.988;20.338;2023-08-06T09:55:29;1.10;;;1.00;;
70592;SDS011;58294;42.988;20.338;2023-08-06T09:57:55;1.08;;;0.82;;
70592;SDS011;58294;42.988;20.338;2023-08-06T10:00:22;1.38;;;1.27;;
70592;SDS011;58294;42.988;20.338;2023-08-06T10:02:48;1.27;;;1.15;;
70592;SDS011;58294;42.988;20.338;2023-08-06T10:05:16;2.13;;;1.38;;
70592;SDS011;58294;42.988;20.338;2023-08-06T10:07:43;2.10;;;1.30;;
70592;SDS011;58294;42.988;20.338;2023-08-06T10:10:10;1.50;;;1.30;;
70592;SDS011;58294;42.988;20.338;2023-08-06T10:12:37;1.10;;;1.00;;
70592;SDS011;58294;42.988;20.338;2023-08-06T10:15:12;2.00;;;1.48;;
70592;SDS011;58294;42.988;20.338;2023-08-06T10:17:41;1.85;;;1.45;;
70592;SDS011;58294;42.988;20.338;2023-08-06T10:20:09;1.50;;;1.40;;
70592;SDS011;58294;42.988;20.338;2023-08-06T10:22:35;2.35;;;1.20;;
70592;SDS011;58294;42.988;20.338;2023-08-06T10:25:01;3.45;;;1.25;;
70592;SDS011;58294;42.988;20.338;2023-08-06T10:33:15;1.10;;;1.10;;
70592;SDS011;58294;42.988;20.338;2023-08-06T10:35:47;1.10;;;1.00;;
70592;SDS011;58294;42.988;20.338;2023-08-06T10:43:31;1.20;;;1.08;;
70592;SDS011;58294;42.988;20.338;2023-08-06T10:45:59;0.80;;;0.80;;
70592;SDS011;58294;42.988;20.338;2023-08-06T10:48:36;1.25;;;1.00;;
70592;SDS011;58294;42.988;20.338;2023-08-06T10:51:08;2.97;;;1.85;;
70592;SDS011;58294;42.988;20.338;2023-08-06T10:53:35;4.15;;;2.03;;
70592;SDS011;58294;42.988;20.338;2023-08-06T10:56:01;1.20;;;1.10;;
70592;SDS011;58294;42.988;20.338;2023-08-06T10:58:36;1.10;;;1.00;;
70592;SDS011;58294;42.988;20.338;2023-08-06T11:01:02;1.98;;;1.80;;
70592;SDS011;58294;42.988;20.338;2023-08-06T11:03:28;1.55;;;1.20;;
70592;SDS011;58294;42.988;20.338;2023-08-06T11:05:54;3.45;;;1.67;;
70592;SDS011;58294;42.988;20.338;2023-08-06T11:08:26;2.13;;;1.50;;
70592;SDS011;58294;42.988;20.338;2023-08-06T11:10:53;1.58;;;1.20;;
70592;SDS011;58294;42.988;20.338;2023-08-06T11:13:22;1.80;;;1.45;;
70592;SDS011;58294;42.988;20.338;2023-08-06T11:15:49;2.33;;;1.77;;
70592;SDS011;58294;42.988;20.338;2023-08-06T11:18:17;3.25;;;1.90;;
70592;SDS011;58294;42.988;20.338;2023-08-06T11:20:43;1.50;;;1.20;;
70592;SDS011;58294;42.988;20.338;2023-08-06T11:23:10;2.60;;;1.10;;
70592;SDS011;58294;42.988;20.338;2023-08-06T11:25:36;1.33;;;1.27;;
70592;SDS011;58294;42.988;20.338;2023-08-06T11:28:03;1.25;;;1.15;;
70592;SDS011;58294;42.988;20.338;2023-08-06T11:30:29;0.93;;;0.90;;
70592;SDS011;58294;42.988;20.338;2023-08-06T11:32:54;1.83;;;1.33;;
70592;SDS011;58294;42.988;20.338;2023-08-06T11:35:22;0.85;;;0.85;;
70592;SDS011;58294;42.988;20.338;2023-08-06T11:37:47;1.10;;;1.00;;
70592;SDS011;58294;42.988;20.338;2023-08-06T11:40:14;1.75;;;1.23;;
70592;SDS011;58294;42.988;20.338;2023-08-06T11:42:40;1.33;;;1.20;;
70592;SDS011;58294;42.988;20.338;2023-08-06T11:45:07;1.30;;;1.20;;
70592;SDS011;58294;42.988;20.338;2023-08-06T11:47:37;1.60;;;1.20;;
70592;SDS011;58294;42.988;20.338;2023-08-06T11:50:04;1.02;;;0.98;;
70592;SDS011;58294;42.988;20.338;2023-08-06T11:52:30;1.58;;;1.45;;
70592;SDS011;58294;42.988;20.338;2023-08-06T11:57:31;1.50;;;1.40;;
70592;SDS011;58294;42.988;20.338;2023-08-06T12:02:31;1.00;;;1.00;;
70592;SDS011;58294;42.988;20.338;2023-08-06T12:07:30;1.98;;;1.50;;
70592;SDS011;58294;42.988;20.338;2023-08-06T12:09:57;2.10;;;1.20;;
70592;SDS011;58294;42.988;20.338;2023-08-06T12:12:23;1.33;;;0.95;;
70592;SDS011;58294;42.988;20.338;2023-08-06T12:14:50;1.20;;;1.10;;
70592;SDS011;58294;42.988;20.338;2023-08-06T12:17:16;1.02;;;1.00;;
70592;SDS011;58294;42.988;20.338;2023-08-06T12:19:44;1.27;;;0.80;;
70592;SDS011;58294;42.988;20.338;2023-08-06T12:22:10;1.92;;;1.00;;
70592;SDS011;58294;42.988;20.338;2023-08-06T12:24:36;1.17;;;1.00;;
70592;SDS011;58294;42.988;20.338;2023-08-06T12:27:02;2.83;;;0.95;;
70592;SDS011;58294;42.988;20.338;2023-08-06T12:29:28;2.67;;;2.15;;
70592;SDS011;58294;42.988;20.338;2023-08-06T12:31:54;1.50;;;1.20;;
70592;SDS011;58294;42.988;20.338;2023-08-06T12:34:19;1.95;;;1.40;;
70592;SDS011;58294;42.988;20.338;2023-08-06T12:36:45;1.45;;;1.35;;
70592;SDS011;58294;42.988;20.338;2023-08-06T12:39:11;2.15;;;1.27;;
70592;SDS011;58294;42.988;20.338;2023-08-06T12:41:37;1.58;;;1.23;;
70592;SDS011;58294;42.988;20.338;2023-08-06T12:44:02;3.58;;;1.20;;
70592;SDS011;58294;42.988;20.338;2023-08-06T12:46:28;1.58;;;1.10;;
70592;SDS011;58294;42.988;20.338;2023-08-06T12:48:54;1.27;;;1.10;;
70592;SDS011;58294;42.988;20.338;2023-08-06T12:51:22;2.33;;;1.30;;
70592;SDS011;58294;42.988;20.338;2023-08-06T12:53:48;1.65;;;1.40;;
70592;SDS011;58294;42.988;20.338;2023-08-06T12:56:14;1.27;;;1.17;;
70592;SDS011;58294;42.988;20.338;2023-08-06T12:58:40;4.63;;;2.00;;
70592;SDS011;58294;42.988;20.338;2023-08-06T13:01:07;2.55;;;1.90;;
70592;SDS011;58294;42.988;20.338;2023-08-06T13:03:32;1.50;;;1.40;;
70592;SDS011;58294;42.988;20.338;2023-08-06T13:05:58;2.15;;;1.73;;
70592;SDS011;58294;42.988;20.338;2023-08-06T13:08:24;1.83;;;1.73;;
70592;SDS011;58294;42.988;20.338;2023-08-06T13:10:50;3.90;;;2.00;;
70592;SDS011;58294;42.988;20.338;2023-08-06T13:13:16;2.70;;;1.98;;
70592;SDS011;58294;42.988;20.338;2023-08-06T13:15:42;2.92;;;1.85;;
70592;SDS011;58294;42.988;20.338;2023-08-06T13:18:07;3.70;;;1.80;;
70592;SDS011;58294;42.988;20.338;2023-08-06T13:20:33;1.90;;;1.65;;
70592;SDS011;58294;42.988;20.338;2023-08-06T13:22:59;3.33;;;1.63;;
70592;SDS011;58294;42.988;20.338;2023-08-06T13:25:26;2.40;;;2.05;;
70592;SDS011;58294;42.988;20.338;2023-08-06T13:27:53;1.45;;;1.35;;
70592;SDS011;58294;42.988;20.338;2023-08-06T13:30:20;1.85;;;1.40;;
70592;SDS011;58294;42.988;20.338;2023-08-06T13:32:46;4.32;;;1.73;;
70592;SDS011;58294;42.988;20.338;2023-08-06T13:35:12;2.45;;;1.58;;
70592;SDS011;58294;42.988;20.338;2023-08-06T13:37:37;1.85;;;1.27;;
70592;SDS011;58294;42.988;20.338;2023-08-06T13:40:04;2.35;;;1.48;;
70592;SDS011;58294;42.988;20.338;2023-08-06T13:42:31;1.60;;;1.20;;
70592;SDS011;58294;42.988;20.338;2023-08-06T13:44:57;2.28;;;1.40;;
70592;SDS011;58294;42.988;20.338;2023-08-06T13:47:27;1.67;;;1.30;;
70592;SDS011;58294;42.988;20.338;2023-08-06T13:49:53;1.60;;;1.45;;
70592;SDS011;58294;42.988;20.338;2023-08-06T13:52:20;1.73;;;1.20;;
70592;SDS011;58294;42.988;20.338;2023-08-06T13:54:46;1.45;;;1.35;;
70592;SDS011;58294;42.988;20.338;2023-08-06T13:57:12;2.00;;;1.63;;
70592;SDS011;58294;42.988;20.338;2023-08-06T13:59:38;2.42;;;1.73;;
70592;SDS011;58294;42.988;20.338;2023-08-06T14:02:04;2.25;;;1.88;;
70592;SDS011;58294;42.988;20.338;2023-08-06T14:04:29;2.00;;;1.77;;
70592;SDS011;58294;42.988;20.338;2023-08-06T14:06:55;1.98;;;1.60;;
70592;SDS011;58294;42.988;20.338;2023-08-06T14:09:21;2.78;;;1.52;;
70592;SDS011;58294;42.988;20.338;2023-08-06T14:11:47;4.30;;;1.85;;
70592;SDS011;58294;42.988;20.338;2023-08-06T14:14:12;3.83;;;2.30;;
70592;SDS011;58294;42.988;20.338;2023-08-06T14:16:38;1.40;;;1.00;;
70592;SDS011;58294;42.988;20.338;2023-08-06T14:19:04;2.40;;;1.60;;
70592;SDS011;58294;42.988;20.338;2023-08-06T14:21:30;5.63;;;3.10;;
70592;SDS011;58294;42.988;20.338;2023-08-06T14:23:56;2.40;;;1.52;;
70592;SDS011;58294;42.988;20.338;2023-08-06T14:26:22;1.50;;;1.17;;
70592;SDS011;58294;42.988;20.338;2023-08-06T14:28:48;2.45;;;1.10;;
70592;SDS011;58294;42.988;20.338;2023-08-06T14:31:14;1.67;;;1.08;;
70592;SDS011;58294;42.988;20.338;2023-08-06T14:33:39;1.13;;;1.13;;
70592;SDS011;58294;42.988;20.338;2023-08-06T14:36:05;3.05;;;1.15;;
70592;SDS011;58294;42.988;20.338;2023-08-06T14:38:31;2.67;;;1.40;;
70592;SDS011;58294;42.988;20.338;2023-08-06T14:40:57;1.17;;;0.90;;
70592;SDS011;58294;42.988;20.338;2023-08-06T14:43:23;1.13;;;0.82;;
70592;SDS011;58294;42.988;20.338;2023-08-06T14:45:49;4.82;;;1.10;;
70592;SDS011;58294;42.988;20.338;2023-08-06T14:48:15;2.80;;;1.67;;